Winnemucca, NV (89445)

6:54 AM PDT on October 24, 2014 (GMT -0700)
Winnemucca Municipal | Change Station
CLOSE
Current Station
Airport
Location: Winnemucca,
Elevation: 4311 ft
Nearby Weather Stations

Elev 4311 ft 40.90 °N, 117.81 °W | Updated 58 minutes ago

Clear
Clear
31 °F
Feels Like 24 °F
N
7
Wind Variable Wind from ESE

Today
High -- | Low -- °F
--% Chance of Precip.
Yesterday
High -- | Low -- °F
Precip. -- in
7:12 AM 5:57 PM
New Moon, 0% visible
Pressure 30.06 in
Visibility 10.0 miles
Clouds Clear
Windchill 24 °F
Dew Point 26 °F
Humidity 82%
Rainfall 0.00 in
Snow Depth Not available.
UV 0 out of 12
Pollen 2.80 out of 12
Air Quality Not available.
Flu Activity No Activity
METAR KWMC 241256Z AUTO 12006KT 10SM CLR M01/M03 A3008 RMK AO2 SLP178 T10061033

More Conditions Fewer Conditions

Pressure 30.06 in
Visibility 10.0 miles
Clouds Clear
Windchill 24 °F
Dew Point 26 °F
Humidity 82%
Rainfall 0.00 in
Snow Depth Not available.
UV 0 out of 12
Pollen 2.80 out of 12
Air Quality Not available.
Flu Activity No Activity
METAR KWMC 241256Z AUTO 12006KT 10SM CLR M01/M03 A3008 RMK AO2 SLP178 T10061033

More Conditions Fewer Conditions

10-Day Weather Forecast

Almanac

Astronomy

Oct. 24, 2014 Rise Set
Actual Time 7:12 AM PDT 5:57 PM PDT
Civil Twilight 6:44 AM PDT 6:25 PM PDT
Nautical Twilight 6:12 AM PDT 6:57 PM PDT
Astronomical Twilight 5:40 AM PDT 7:29 PM PDT
Moon 7:56 AM PDT 6:39 PM PDT
Length of Visible Light 11h 40m
Length of Day
10h 44m
Tomorrow will be 2m 33s shorter.
New Moon, 0% of the Moon is Illuminated
Today
New Moon
Oct 30
First Quarter
Nov 6
Full
Nov 14
Last Quarter
Nov 22
New

Today's Extremes

State Highs State Lows

Community

WunderPhotos

Upload Photos

1,764,551 photos uploaded!

WunderBlogs® & News

By Dr. Jeff Masters
Director of Meteorology, Weather Underground
By Kari Strenfel
Meteorologist, Weather Underground
By Christopher C. Burt
Weather Historian, Weather Underground
October 24, 2014
October 24, 2014
October 24, 2014

Nearby

Snow Depth

Station Depth Elevation
Lamance Creek 2 in 6000 ft
Granite Peak 2 in 7800 ft
Buckskin Lower 0 in 6700 ft
Disaster Peak 1 in 6500 ft
Lewis Peak 0 in 7400 ft

Earthquake Activity

City Distance Mag. Time & Date
Gerlach-Empire, Nevada 116 miles 2.5 7:16 AM PDT
2014-10-23
Minimum magnitude displayed is 2.5.

Coastal Water Temperatures

Place Temperature
No Stations Reporting

Nearby Weather Stations